createdAt,value
2019-02-06T00:00:44.205Z,4.30
2019-02-06T00:03:18.487Z,4.30
2019-02-06T00:05:48.092Z,4.30
2019-02-06T00:08:17.640Z,4.30
2019-02-06T00:10:46.885Z,4.40
2019-02-06T00:13:16.717Z,4.40
2019-02-06T00:15:46.542Z,4.40
2019-02-06T00:18:16.137Z,4.40
2019-02-06T00:20:45.391Z,4.50
2019-02-06T00:23:15.025Z,4.50
2019-02-06T00:25:44.584Z,4.50
2019-02-06T00:28:14.241Z,4.50
2019-02-06T00:30:43.696Z,4.60
2019-02-06T00:33:13.171Z,4.50
2019-02-06T00:35:42.698Z,4.50
2019-02-06T00:38:11.876Z,4.40
2019-02-06T00:40:41.500Z,4.40
2019-02-06T00:43:11.160Z,4.30
2019-02-06T00:45:40.476Z,4.20
2019-02-06T00:48:09.734Z,4.30
2019-02-06T00:50:38.979Z,4.30
2019-02-06T00:53:08.293Z,4.40
2019-02-06T00:55:37.550Z,4.40
2019-02-06T00:58:06.833Z,4.30
2019-02-06T01:00:36.696Z,4.30
2019-02-06T01:03:07.146Z,4.30
2019-02-06T01:05:38.414Z,4.30
2019-02-06T01:08:07.459Z,4.30
2019-02-06T01:10:36.713Z,4.30
2019-02-06T01:13:05.967Z,4.30
2019-02-06T01:15:35.228Z,4.30
2019-02-06T01:18:04.981Z,4.30
2019-02-06T01:20:34.234Z,4.30
2019-02-06T01:23:03.456Z,4.20
2019-02-06T01:25:33.084Z,4.30
2019-02-06T01:28:02.396Z,4.30
2019-02-06T01:30:37.910Z,4.30
2019-02-06T01:33:07.153Z,4.40
2019-02-06T01:35:36.614Z,4.30
2019-02-06T01:38:06.131Z,4.30
2019-02-06T01:40:35.379Z,4.30
2019-02-06T01:43:04.616Z,4.30
2019-02-06T01:45:33.928Z,4.30
2019-02-06T01:48:03.488Z,4.30
2019-02-06T01:50:32.805Z,4.30
2019-02-06T01:53:02.093Z,4.30
2019-02-06T01:55:31.261Z,4.30
2019-02-06T01:58:00.425Z,4.40
2019-02-06T02:00:30.006Z,4.30
2019-02-06T02:02:59.567Z,4.30
2019-02-06T02:05:28.917Z,4.40
2019-02-06T02:07:58.248Z,4.40
2019-02-06T02:10:27.705Z,4.40
2019-02-06T02:12:57.210Z,4.40
2019-02-06T02:15:26.434Z,4.40
2019-02-06T02:17:55.976Z,4.40
2019-02-06T02:20:25.300Z,4.40
2019-02-06T02:22:54.558Z,4.40
2019-02-06T02:25:23.869Z,4.40
2019-02-06T02:27:53.103Z,4.50
2019-02-06T02:30:29.740Z,4.50
2019-02-06T02:32:59.304Z,4.60
2019-02-06T02:35:28.647Z,4.50
2019-02-06T02:37:58.203Z,4.60
2019-02-06T02:40:27.454Z,4.50
2019-02-06T02:42:56.755Z,4.50
2019-02-06T02:45:26.484Z,4.50
2019-02-06T02:47:56.417Z,4.50
2019-02-06T02:50:26.032Z,4.50
2019-02-06T02:52:55.388Z,4.60
2019-02-06T02:55:24.939Z,4.60
2019-02-06T02:57:54.136Z,4.60
2019-02-06T03:00:30.459Z,4.60
2019-02-06T03:03:18.215Z,4.60
2019-02-06T03:05:47.375Z,4.60
2019-02-06T03:08:16.927Z,4.60
2019-02-06T03:10:46.640Z,4.60
2019-02-06T03:13:15.777Z,4.60
2019-02-06T03:15:45.342Z,4.60
2019-02-06T03:18:14.947Z,4.70
2019-02-06T03:20:44.083Z,4.70
2019-02-06T03:23:13.264Z,4.70
2019-02-06T03:25:42.907Z,4.60
2019-02-06T03:28:12.140Z,4.70
2019-02-06T03:30:41.317Z,4.60
2019-02-06T03:33:29.610Z,4.60
2019-02-06T03:35:58.857Z,4.60
2019-02-06T03:38:28.482Z,4.60
2019-02-06T03:40:57.657Z,4.60
2019-02-06T03:43:26.803Z,4.60
2019-02-06T03:45:55.974Z,4.60
2019-02-06T03:48:25.238Z,4.60
2019-02-06T03:50:54.464Z,4.50
2019-02-06T03:53:23.994Z,4.60
2019-02-06T03:55:53.228Z,4.60
2019-02-06T03:58:22.393Z,4.60
2019-02-06T04:00:51.845Z,4.60
2019-02-06T04:03:21.086Z,4.60
2019-02-06T04:05:50.665Z,4.70
2019-02-06T04:08:20.321Z,4.70
2019-02-06T04:10:49.534Z,4.70
2019-02-06T04:13:18.776Z,4.80
2019-02-06T04:15:48.002Z,4.80
2019-02-06T04:18:17.186Z,4.80
2019-02-06T04:20:46.393Z,4.80
2019-02-06T04:23:18.014Z,4.80
2019-02-06T04:25:47.254Z,4.80
2019-02-06T04:28:16.544Z,4.70
2019-02-06T04:30:46.164Z,4.80
2019-02-06T04:33:15.425Z,4.80
2019-02-06T04:35:45.014Z,4.90
2019-02-06T04:38:14.523Z,4.80
2019-02-06T04:40:43.726Z,4.80
2019-02-06T04:43:12.939Z,4.80
2019-02-06T04:45:42.191Z,4.80
2019-02-06T04:48:11.359Z,4.90
2019-02-06T04:50:40.552Z,4.90
2019-02-06T04:53:10.203Z,4.90
2019-02-06T04:55:39.658Z,5.00
2019-02-06T04:58:09.206Z,5.00
2019-02-06T05:00:39.013Z,5.00
2019-02-06T05:03:08.568Z,5.00
2019-02-06T05:05:37.811Z,5.00
2019-02-06T05:08:09.196Z,5.00
2019-02-06T05:10:38.478Z,5.00
2019-02-06T05:13:07.626Z,5.00
2019-02-06T05:15:36.935Z,5.00
2019-02-06T05:18:06.538Z,5.00
2019-02-06T05:20:38.171Z,5.00
2019-02-06T05:23:08.703Z,5.00
2019-02-06T05:25:38.480Z,5.00
2019-02-06T05:28:14.092Z,5.10
2019-02-06T05:30:43.296Z,5.10
2019-02-06T05:33:12.457Z,5.10
2019-02-06T05:35:42.229Z,5.10
2019-02-06T05:38:16.544Z,5.10
2019-02-06T05:40:45.841Z,5.10
2019-02-06T05:43:15.068Z,5.10
2019-02-06T05:45:44.314Z,5.10
2019-02-06T05:48:13.542Z,5.10
2019-02-06T05:50:42.938Z,5.20
2019-02-06T05:53:12.441Z,5.20
2019-02-06T05:55:41.767Z,5.30
2019-02-06T05:58:11.546Z,5.30
2019-02-06T06:00:48.833Z,5.30
2019-02-06T06:03:18.123Z,5.40
2019-02-06T06:05:47.366Z,5.40
2019-02-06T06:08:16.909Z,5.40
2019-02-06T06:10:46.513Z,5.40
2019-02-06T06:13:18.455Z,5.40
2019-02-06T06:15:46.655Z,5.40
2019-02-06T06:18:15.879Z,5.40
2019-02-06T06:20:45.465Z,5.40
2019-02-06T06:23:14.720Z,5.40
2019-02-06T06:25:44.270Z,5.40
2019-02-06T06:28:13.557Z,5.40
2019-02-06T06:30:43.078Z,5.50
2019-02-06T06:33:12.738Z,5.50
2019-02-06T06:35:42.288Z,5.50
2019-02-06T06:38:11.881Z,5.50
2019-02-06T06:40:41.405Z,5.50
2019-02-06T06:43:11.047Z,5.60
2019-02-06T06:45:40.289Z,5.60
2019-02-06T06:48:09.502Z,5.60
2019-02-06T06:50:38.719Z,5.60
2019-02-06T06:53:08.702Z,5.60
2019-02-06T06:55:38.315Z,5.60
2019-02-06T06:58:07.524Z,5.60
2019-02-06T07:00:37.115Z,5.60
2019-02-06T07:03:06.421Z,5.60
2019-02-06T07:05:36.032Z,5.70
2019-02-06T07:08:10.093Z,5.70
2019-02-06T07:10:37.378Z,5.70
2019-02-06T07:13:06.605Z,5.70
2019-02-06T07:15:36.220Z,5.70
2019-02-06T07:18:05.468Z,5.70
2019-02-06T07:20:34.792Z,5.70
2019-02-06T07:23:04.369Z,5.70
2019-02-06T07:25:33.610Z,5.70
2019-02-06T07:28:03.299Z,5.70
2019-02-06T07:30:34.368Z,5.70
2019-02-06T07:33:03.667Z,5.70
2019-02-06T07:35:32.944Z,5.70
2019-02-06T07:38:02.419Z,5.80
2019-02-06T07:40:31.665Z,5.80
2019-02-06T07:43:01.121Z,5.80
2019-02-06T07:45:30.447Z,5.80
2019-02-06T07:47:59.664Z,5.80
2019-02-06T07:50:30.901Z,5.80
2019-02-06T07:53:00.391Z,5.80
2019-02-06T07:55:30.199Z,5.80
2019-02-06T07:57:59.763Z,5.80
2019-02-06T08:00:29.659Z,5.80
2019-02-06T08:02:59.238Z,5.80
2019-02-06T08:05:28.669Z,5.90
2019-02-06T08:07:58.738Z,5.90
2019-02-06T08:10:32.923Z,5.90
2019-02-06T08:13:02.721Z,5.90
2019-02-06T08:15:32.253Z,5.90
2019-02-06T08:18:01.507Z,6.00
2019-02-06T08:20:31.285Z,6.00
2019-02-06T08:23:00.874Z,6.00
2019-02-06T08:25:30.034Z,6.00
2019-02-06T08:27:59.269Z,6.00
2019-02-06T08:30:31.064Z,6.00
2019-02-06T08:33:00.531Z,6.00
2019-02-06T08:35:30.117Z,6.10
2019-02-06T08:37:59.363Z,6.10
2019-02-06T08:40:29.007Z,6.10
2019-02-06T08:42:58.255Z,6.10
2019-02-06T08:45:28.034Z,6.10
2019-02-06T08:47:57.550Z,6.10
2019-02-06T08:50:27.292Z,6.20
2019-02-06T08:52:57.018Z,6.20
2019-02-06T08:55:28.261Z,6.20
2019-02-06T08:57:57.547Z,6.20
2019-02-06T09:00:35.338Z,6.30
2019-02-06T09:03:05.784Z,6.30
2019-02-06T09:05:35.022Z,6.30
2019-02-06T09:08:05.000Z,6.30
2019-02-06T09:10:34.408Z,6.30
2019-02-06T09:13:03.564Z,6.30
2019-02-06T09:15:32.793Z,6.30
2019-02-06T09:18:01.964Z,6.30
2019-02-06T09:20:32.628Z,6.30
2019-02-06T09:23:02.068Z,6.40
2019-02-06T09:25:32.100Z,6.40
2019-02-06T09:28:01.285Z,6.40
2019-02-06T09:30:31.973Z,6.40
2019-02-06T09:33:01.308Z,6.40
2019-02-06T09:35:30.984Z,6.40
2019-02-06T09:38:00.534Z,6.50
2019-02-06T09:40:30.774Z,6.50
2019-02-06T09:43:00.195Z,6.50
2019-02-06T09:45:29.934Z,6.50
2019-02-06T09:47:59.156Z,6.50
2019-02-06T09:50:31.101Z,6.50
2019-02-06T09:53:00.325Z,6.50
2019-02-06T09:55:29.666Z,6.50
2019-02-06T09:57:58.884Z,6.50
2019-02-06T10:00:33.390Z,6.60
2019-02-06T10:03:02.984Z,6.60
2019-02-06T10:05:32.508Z,6.60
2019-02-06T10:08:02.248Z,6.60
2019-02-06T10:10:31.506Z,6.60
2019-02-06T10:13:00.738Z,6.70
2019-02-06T10:15:31.945Z,6.70
2019-02-06T10:18:02.126Z,6.70
2019-02-06T10:20:36.541Z,6.70
2019-02-06T10:23:08.433Z,6.80
2019-02-06T10:25:39.879Z,6.80
2019-02-06T10:28:09.565Z,6.80
2019-02-06T10:30:44.713Z,6.70
2019-02-06T10:33:13.875Z,6.80
2019-02-06T10:35:43.125Z,6.80
2019-02-06T10:38:12.737Z,6.80
2019-02-06T10:40:42.282Z,6.80
2019-02-06T10:43:11.711Z,6.90
2019-02-06T10:45:41.237Z,6.90
2019-02-06T10:48:10.917Z,6.90
2019-02-06T10:50:48.591Z,6.90
2019-02-06T10:53:18.092Z,6.90
2019-02-06T10:55:47.324Z,6.90
2019-02-06T10:58:16.967Z,7.00
2019-02-06T11:00:49.997Z,7.00
2019-02-06T11:03:19.187Z,7.10
2019-02-06T11:05:48.835Z,7.10
2019-02-06T11:08:18.280Z,7.10
2019-02-06T11:10:47.555Z,7.10
2019-02-06T11:13:17.185Z,7.20
2019-02-06T11:15:49.139Z,7.20
2019-02-06T11:18:18.386Z,7.20
2019-02-06T11:20:47.596Z,7.30
2019-02-06T11:23:17.054Z,7.20
2019-02-06T11:25:46.206Z,7.30
2019-02-06T11:28:15.766Z,7.30
2019-02-06T11:30:45.018Z,7.30
2019-02-06T11:33:14.245Z,7.40
2019-02-06T11:35:43.835Z,7.40
2019-02-06T11:38:13.022Z,7.40
2019-02-06T11:40:42.274Z,7.40
2019-02-06T11:43:11.906Z,7.50
2019-02-06T11:45:41.524Z,7.50
2019-02-06T11:48:11.054Z,7.50
2019-02-06T11:50:43.959Z,7.50
2019-02-06T11:53:15.946Z,7.50
2019-02-06T11:55:45.099Z,7.50
2019-02-06T11:58:15.427Z,7.50
2019-02-06T12:01:02.642Z,7.50
2019-02-06T12:03:31.984Z,7.50
2019-02-06T12:06:01.302Z,7.50
2019-02-06T12:08:31.313Z,7.50
2019-02-06T12:11:00.589Z,7.50
2019-02-06T12:13:30.165Z,7.50
2019-02-06T12:15:59.321Z,7.50
2019-02-06T12:18:28.667Z,7.60
2019-02-06T12:20:57.921Z,7.50
2019-02-06T12:23:32.379Z,7.60
2019-02-06T12:25:58.753Z,7.60
2019-02-06T12:28:27.945Z,7.60
2019-02-06T12:30:57.103Z,7.60
2019-02-06T12:33:26.299Z,7.60
2019-02-06T12:35:55.451Z,7.60
2019-02-06T12:38:24.731Z,7.70
2019-02-06T12:40:54.320Z,7.70
2019-02-06T12:43:23.574Z,7.70
2019-02-06T12:45:52.753Z,7.80
2019-02-06T12:48:21.990Z,7.80
2019-02-06T12:50:51.156Z,7.80
2019-02-06T12:53:20.367Z,7.80
2019-02-06T12:55:49.680Z,7.80
2019-02-06T12:58:19.557Z,7.80
2019-02-06T13:00:48.812Z,7.80
2019-02-06T13:03:18.406Z,7.90
2019-02-06T13:05:47.692Z,7.90
2019-02-06T13:08:17.470Z,7.90
2019-02-06T13:10:46.858Z,7.90
2019-02-06T13:13:16.468Z,7.90
2019-02-06T13:15:47.392Z,8.00
2019-02-06T13:18:16.734Z,8.00
2019-02-06T13:20:45.968Z,8.00
2019-02-06T13:23:15.217Z,8.10
2019-02-06T13:25:44.905Z,8.10
2019-02-06T13:28:14.456Z,8.10
2019-02-06T13:30:43.961Z,8.20
2019-02-06T13:33:13.309Z,8.20
2019-02-06T13:35:42.695Z,8.20
2019-02-06T13:38:11.881Z,8.30
2019-02-06T13:40:45.565Z,8.30
2019-02-06T13:43:12.461Z,8.30
2019-02-06T13:45:46.665Z,8.30
2019-02-06T13:48:15.905Z,8.30
2019-02-06T13:50:45.363Z,8.30
2019-02-06T13:53:14.671Z,8.30
2019-02-06T13:55:44.308Z,8.40
2019-02-06T13:58:20.361Z,8.40
2019-02-06T14:00:44.581Z,8.40
2019-02-06T14:03:14.013Z,8.30
2019-02-06T14:05:46.731Z,8.30
2019-02-06T14:08:16.902Z,8.40
2019-02-06T14:10:58.272Z,8.40
2019-02-06T14:13:17.939Z,8.40
2019-02-06T14:15:48.924Z,8.50
2019-02-06T14:18:18.185Z,8.50
2019-02-06T14:20:50.784Z,8.40
2019-02-06T14:23:42.290Z,8.40
2019-02-06T14:26:25.738Z,8.40
2019-02-06T14:29:31.342Z,8.40
2019-02-06T14:32:51.003Z,8.40
2019-02-06T14:35:32.557Z,8.50
2019-02-06T14:38:29.934Z,8.50
2019-02-06T14:41:49.388Z,8.50
2019-02-06T14:44:58.258Z,8.60
2019-02-06T14:47:43.098Z,8.60
2019-02-06T14:50:52.334Z,8.60
2019-02-06T14:54:08.915Z,8.60
2019-02-06T14:57:04.648Z,8.70
2019-02-06T14:59:42.618Z,8.60
2019-02-06T15:02:52.906Z,8.70
2019-02-06T15:05:43.822Z,8.60
2019-02-06T15:08:36.716Z,8.50
2019-02-06T15:11:49.706Z,8.50
2019-02-06T15:14:46.486Z,8.50
2019-02-06T15:17:36.619Z,8.50
2019-02-06T15:20:33.645Z,8.50
2019-02-06T15:23:36.494Z,8.60
2019-02-06T15:26:36.221Z,8.60
2019-02-06T15:29:21.235Z,8.60
2019-02-06T15:32:17.209Z,8.60
2019-02-06T15:35:16.641Z,8.70
2019-02-06T15:38:12.194Z,8.70
2019-02-06T15:41:08.580Z,8.70
2019-02-06T15:43:58.425Z,8.70
2019-02-06T15:47:03.948Z,8.60
2019-02-06T15:49:58.907Z,8.60
2019-02-06T15:52:53.611Z,8.50
2019-02-06T15:55:51.911Z,8.50
2019-02-06T15:58:36.859Z,8.50
2019-02-06T16:01:30.755Z,8.50
2019-02-06T16:05:01.962Z,8.50
2019-02-06T16:08:02.411Z,8.50
2019-02-06T16:11:10.192Z,8.60
2019-02-06T16:14:35.795Z,8.60
2019-02-06T16:17:53.031Z,8.60
2019-02-06T16:20:52.124Z,8.60
2019-02-06T16:24:01.224Z,8.60
2019-02-06T16:27:05.363Z,8.60
2019-02-06T16:30:05.395Z,8.60
2019-02-06T16:33:18.235Z,8.60
2019-02-06T16:36:30.232Z,8.60
2019-02-06T16:39:21.025Z,8.70
2019-02-06T16:42:49.161Z,8.70
2019-02-06T16:45:48.369Z,8.70
2019-02-06T16:48:56.589Z,8.70
2019-02-06T16:51:53.613Z,8.70
2019-02-06T16:54:58.291Z,8.70
2019-02-06T16:58:01.742Z,8.70
2019-02-06T17:01:07.154Z,8.70
2019-02-06T17:04:25.601Z,8.70
2019-02-06T17:07:29.987Z,8.70
2019-02-06T17:10:33.511Z,8.70
2019-02-06T17:13:44.287Z,8.70
2019-02-06T17:17:05.795Z,8.80
2019-02-06T17:19:56.864Z,8.80
2019-02-06T17:22:51.767Z,8.80
2019-02-06T17:26:09.851Z,8.90
2019-02-06T17:29:08.759Z,8.80
2019-02-06T17:32:12.637Z,8.80
2019-02-06T17:34:51.901Z,8.80
2019-02-06T17:37:46.835Z,8.90
2019-02-06T17:41:06.892Z,8.90
2019-02-06T17:44:13.181Z,8.80
2019-02-06T17:47:13.203Z,8.80
2019-02-06T17:50:16.133Z,8.80
2019-02-06T17:53:42.026Z,8.90
2019-02-06T17:56:11.380Z,8.80
2019-02-06T17:58:43.218Z,8.80
2019-02-06T18:01:32.447Z,8.80
2019-02-06T18:04:06.136Z,8.80
2019-02-06T18:06:35.317Z,8.80
2019-02-06T18:09:14.338Z,8.90
2019-02-06T18:11:43.741Z,8.90
2019-02-06T18:14:13.564Z,8.90
2019-02-06T18:16:42.941Z,9.00
2019-02-06T18:19:12.286Z,8.90
2019-02-06T18:21:41.464Z,8.90
2019-02-06T18:24:11.503Z,8.90
2019-02-06T18:26:46.514Z,8.90
2019-02-06T18:29:16.039Z,8.90
2019-02-06T18:31:45.282Z,8.90
2019-02-06T18:34:14.939Z,9.00
2019-02-06T18:36:44.548Z,8.90
2019-02-06T18:39:15.198Z,8.90
2019-02-06T18:41:45.161Z,9.00
2019-02-06T18:44:14.494Z,8.90
2019-02-06T18:46:45.591Z,8.90
2019-02-06T18:49:14.917Z,8.90
2019-02-06T18:51:44.339Z,8.90
2019-02-06T18:54:14.041Z,8.90
2019-02-06T18:56:43.743Z,8.90
2019-02-06T18:59:13.049Z,8.90
2019-02-06T19:01:42.716Z,8.90
2019-02-06T19:04:16.747Z,8.90
2019-02-06T19:06:46.390Z,8.90
2019-02-06T19:09:16.724Z,8.90
2019-02-06T19:11:45.956Z,8.90
2019-02-06T19:14:15.367Z,8.90
2019-02-06T19:16:44.970Z,8.90
2019-02-06T19:19:24.807Z,8.90
2019-02-06T19:21:45.758Z,8.90
2019-02-06T19:24:17.686Z,8.90
2019-02-06T19:26:46.279Z,8.90
2019-02-06T19:29:15.603Z,8.90
2019-02-06T19:31:45.260Z,8.90
2019-02-06T19:34:15.219Z,8.90
2019-02-06T19:36:44.939Z,8.80
2019-02-06T19:39:14.185Z,8.80
2019-02-06T19:41:43.746Z,8.90
2019-02-06T19:44:13.067Z,8.90
2019-02-06T19:46:42.390Z,8.90
2019-02-06T19:49:11.745Z,8.80
2019-02-06T19:51:41.069Z,8.90
2019-02-06T19:54:10.762Z,8.90
2019-02-06T19:56:40.114Z,8.90
2019-02-06T19:59:09.432Z,8.90
2019-02-06T20:01:38.743Z,8.90
2019-02-06T20:04:08.036Z,8.90
2019-02-06T20:06:37.608Z,8.90
2019-02-06T20:09:11.610Z,8.90
2019-02-06T20:11:40.934Z,8.80
2019-02-06T20:14:10.554Z,8.80
2019-02-06T20:16:39.891Z,8.80
2019-02-06T20:19:09.142Z,8.90
2019-02-06T20:21:38.605Z,8.90
2019-02-06T20:24:08.253Z,8.80
2019-02-06T20:26:37.859Z,8.80
2019-02-06T20:29:07.121Z,8.90
2019-02-06T20:31:36.881Z,8.90
2019-02-06T20:34:06.785Z,8.90
2019-02-06T20:36:36.063Z,8.90
2019-02-06T20:39:08.708Z,8.90
2019-02-06T20:41:38.053Z,8.90
2019-02-06T20:44:07.575Z,8.90
2019-02-06T20:46:36.957Z,9.00
2019-02-06T20:49:06.571Z,9.00
2019-02-06T20:51:35.833Z,9.00
2019-02-06T20:54:06.153Z,9.00
2019-02-06T20:56:35.519Z,9.00
2019-02-06T20:59:05.149Z,9.00
2019-02-06T21:01:34.413Z,9.00
2019-02-06T21:04:03.843Z,9.00
2019-02-06T21:06:33.072Z,9.00
2019-02-06T21:09:02.957Z,9.00
2019-02-06T21:11:32.459Z,9.00
2019-02-06T21:14:01.694Z,9.00
2019-02-06T21:16:31.049Z,9.00
2019-02-06T21:19:00.349Z,9.00
2019-02-06T21:21:29.658Z,9.00
2019-02-06T21:23:58.935Z,9.00
2019-02-06T21:26:28.523Z,9.00
2019-02-06T21:28:57.922Z,8.90
2019-02-06T21:31:27.228Z,8.90
2019-02-06T21:33:57.820Z,8.90
2019-02-06T21:36:29.646Z,9.00
2019-02-06T21:39:03.310Z,9.00
2019-02-06T21:41:32.618Z,9.00
2019-02-06T21:44:01.986Z,9.00
2019-02-06T21:46:31.275Z,9.00
2019-02-06T21:49:00.880Z,9.00
2019-02-06T21:51:30.219Z,9.10
2019-02-06T21:53:59.446Z,9.00
2019-02-06T21:56:29.126Z,9.10
2019-02-06T21:58:59.552Z,9.10
2019-02-06T22:01:28.818Z,9.10
2019-02-06T22:03:58.156Z,9.10
2019-02-06T22:06:27.763Z,9.10
2019-02-06T22:08:57.512Z,9.10
2019-02-06T22:11:26.868Z,9.10
2019-02-06T22:13:56.554Z,9.10
2019-02-06T22:16:25.937Z,9.10
2019-02-06T22:18:55.169Z,9.10
2019-02-06T22:21:24.445Z,9.10
2019-02-06T22:23:54.093Z,9.10
2019-02-06T22:26:23.403Z,9.10
2019-02-06T22:28:52.661Z,9.10
2019-02-06T22:31:21.907Z,9.10
2019-02-06T22:33:51.099Z,9.10
2019-02-06T22:36:20.661Z,9.20
2019-02-06T22:38:50.974Z,9.20
2019-02-06T22:41:20.198Z,9.20
2019-02-06T22:43:49.681Z,9.20
2019-02-06T22:46:18.914Z,9.20
2019-02-06T22:48:48.183Z,9.20
2019-02-06T22:51:17.785Z,9.20
2019-02-06T22:53:47.736Z,9.30
2019-02-06T22:56:17.044Z,9.30
2019-02-06T22:58:46.491Z,9.30
2019-02-06T23:01:35.402Z,9.30
2019-02-06T23:04:05.253Z,9.40
2019-02-06T23:06:34.576Z,9.40
2019-02-06T23:09:05.326Z,9.40
2019-02-06T23:11:34.633Z,9.40
2019-02-06T23:14:03.979Z,9.50
2019-02-06T23:16:33.490Z,9.50
2019-02-06T23:19:02.946Z,9.50
2019-02-06T23:21:32.618Z,9.60
2019-02-06T23:24:01.925Z,9.60
2019-02-06T23:26:31.586Z,9.60
2019-02-06T23:29:00.762Z,9.60
2019-02-06T23:31:30.022Z,9.60
2019-02-06T23:33:59.194Z,9.60
2019-02-06T23:36:28.450Z,9.60
2019-02-06T23:38:58.188Z,9.60
2019-02-06T23:41:27.429Z,9.60
2019-02-06T23:43:56.689Z,9.60
2019-02-06T23:46:26.264Z,9.60
2019-02-06T23:48:55.528Z,9.60
2019-02-06T23:51:24.780Z,9.60
2019-02-06T23:53:54.199Z,9.70
2019-02-06T23:56:23.812Z,9.70
2019-02-06T23:58:53.219Z,9.70
